createdAt,value
2022-09-07T00:02:01.160Z,43.43
2022-09-07T00:04:27.621Z,43.49
2022-09-07T00:06:54.147Z,43.52
2022-09-07T00:09:21.935Z,43.08
2022-09-07T00:11:48.459Z,43.14
2022-09-07T00:14:14.898Z,43.28
2022-09-07T00:16:42.225Z,43.20
2022-09-07T00:19:09.772Z,43.56
2022-09-07T00:21:36.228Z,43.62
2022-09-07T00:24:03.123Z,43.87
2022-09-07T00:26:29.674Z,43.87
2022-09-07T00:28:56.110Z,43.65
2022-09-07T00:31:22.946Z,43.96
2022-09-07T00:33:49.791Z,44.00
2022-09-07T00:36:16.179Z,43.93
2022-09-07T00:38:43.461Z,44.16
2022-09-07T00:41:10.212Z,43.96
2022-09-07T00:43:36.734Z,44.11
2022-09-07T00:46:03.548Z,44.36
2022-09-07T00:48:30.196Z,43.91
2022-09-07T00:50:58.710Z,44.19
2022-09-07T00:53:25.195Z,43.89
2022-09-07T00:55:51.653Z,44.36
2022-09-07T00:58:18.519Z,44.15
2022-09-07T01:00:45.002Z,44.29
2022-09-07T01:03:11.454Z,43.97
2022-09-07T01:05:38.028Z,43.71
2022-09-07T01:08:04.804Z,43.90
2022-09-07T01:10:31.459Z,44.18
2022-09-07T01:12:58.398Z,44.35
2022-09-07T01:15:25.224Z,44.11
2022-09-07T01:17:51.963Z,44.16
2022-09-07T01:20:18.493Z,44.30
2022-09-07T01:22:45.146Z,44.36
2022-09-07T01:25:11.750Z,44.22
2022-09-07T01:27:38.590Z,44.17
2022-09-07T01:30:05.300Z,44.46
2022-09-07T01:32:31.692Z,44.18
2022-09-07T01:34:58.366Z,44.55
2022-09-07T01:37:25.084Z,44.44
2022-09-07T01:39:54.997Z,44.61
2022-09-07T01:42:21.559Z,44.81
2022-09-07T01:44:48.153Z,45.01
2022-09-07T01:47:14.566Z,45.88
2022-09-07T01:49:41.021Z,45.33
2022-09-07T01:52:07.556Z,45.32
2022-09-07T01:54:33.952Z,45.44
2022-09-07T01:57:00.384Z,45.05
2022-09-07T01:59:29.260Z,45.16
2022-09-07T02:02:01.743Z,45.00
2022-09-07T02:04:28.497Z,44.88
2022-09-07T02:06:55.007Z,44.89
2022-09-07T02:09:21.529Z,44.98
2022-09-07T02:11:48.131Z,45.24
2022-09-07T02:14:14.626Z,45.83
2022-09-07T02:16:41.078Z,45.62
2022-09-07T02:19:07.801Z,45.34
2022-09-07T02:21:34.467Z,45.73
2022-09-07T02:24:01.153Z,45.20
2022-09-07T02:26:27.785Z,45.37
2022-09-07T02:28:54.278Z,45.57
2022-09-07T02:31:20.796Z,46.15
2022-09-07T02:33:47.360Z,46.36
2022-09-07T02:36:13.913Z,46.64
2022-09-07T02:38:40.317Z,45.80
2022-09-07T02:41:06.839Z,46.18
2022-09-07T02:43:34.174Z,45.69
2022-09-07T02:46:00.724Z,46.31
2022-09-07T02:48:27.355Z,46.05
2022-09-07T02:50:53.815Z,46.28
2022-09-07T02:53:20.311Z,45.95
2022-09-07T02:55:47.078Z,46.09
2022-09-07T02:58:13.473Z,45.79
2022-09-07T03:00:40.190Z,45.98
2022-09-07T03:03:07.140Z,46.17
2022-09-07T03:05:33.772Z,46.11
2022-09-07T03:08:00.165Z,45.95
2022-09-07T03:10:26.817Z,46.27
2022-09-07T03:12:53.506Z,46.10
2022-09-07T03:15:20.072Z,45.80
2022-09-07T03:17:47.420Z,45.84
2022-09-07T03:20:14.094Z,45.57
2022-09-07T03:22:40.616Z,45.68
2022-09-07T03:25:07.186Z,45.92
2022-09-07T03:27:33.789Z,45.98
2022-09-07T03:30:00.303Z,46.22
2022-09-07T03:32:29.112Z,46.12
2022-09-07T03:34:55.554Z,46.05
2022-09-07T03:37:22.014Z,46.22
2022-09-07T03:39:48.529Z,46.14
2022-09-07T03:42:15.304Z,45.82
2022-09-07T03:44:41.817Z,45.97
2022-09-07T03:47:09.118Z,46.07
2022-09-07T03:49:35.654Z,46.05
2022-09-07T03:52:03.113Z,45.96
2022-09-07T03:54:29.891Z,46.09
2022-09-07T03:56:56.716Z,46.91
2022-09-07T03:59:23.372Z,47.12
2022-09-07T04:01:50.149Z,47.11
2022-09-07T04:04:16.704Z,47.70
2022-09-07T04:06:43.156Z,47.76
2022-09-07T04:09:09.974Z,47.66
2022-09-07T04:11:36.358Z,47.12
2022-09-07T04:14:02.800Z,46.96
2022-09-07T04:16:29.466Z,46.46
2022-09-07T04:18:55.976Z,46.59
2022-09-07T04:21:22.460Z,46.56
2022-09-07T04:23:49.332Z,46.61
2022-09-07T04:26:16.261Z,46.34
2022-09-07T04:28:42.992Z,46.38
2022-09-07T04:31:09.898Z,46.61
2022-09-07T04:33:36.532Z,46.75
2022-09-07T04:36:02.982Z,46.90
2022-09-07T04:38:29.652Z,46.79
2022-09-07T04:40:58.325Z,46.97
2022-09-07T04:43:24.835Z,46.92
2022-09-07T04:45:54.360Z,47.13
2022-09-07T04:48:20.999Z,46.74
2022-09-07T04:50:47.848Z,46.82
2022-09-07T04:53:14.900Z,46.52
2022-09-07T04:55:41.459Z,46.52
2022-09-07T04:58:07.935Z,46.44
2022-09-07T05:00:35.260Z,46.46
2022-09-07T05:03:01.774Z,46.60
2022-09-07T05:05:28.390Z,46.65
2022-09-07T05:07:55.023Z,46.77
2022-09-07T05:10:22.015Z,47.00
2022-09-07T05:12:48.776Z,47.24
2022-09-07T05:15:15.587Z,46.96
2022-09-07T05:17:42.041Z,46.60
2022-09-07T05:20:08.990Z,46.77
2022-09-07T05:22:35.572Z,46.77
2022-09-07T05:25:02.056Z,46.83
2022-09-07T05:27:28.834Z,46.81
2022-09-07T05:32:24.742Z,46.72
2022-09-07T05:34:53.026Z,46.83
2022-09-07T05:37:19.669Z,46.54
2022-09-07T05:39:46.316Z,46.64
2022-09-07T05:42:12.802Z,46.41
2022-09-07T05:47:09.751Z,46.35
2022-09-07T05:49:36.292Z,46.14
2022-09-07T05:52:02.825Z,46.16
2022-09-07T05:54:30.535Z,46.26
2022-09-07T05:56:56.950Z,46.35
2022-09-07T05:59:25.960Z,46.15
2022-09-07T06:01:52.674Z,46.05
2022-09-07T06:04:19.668Z,46.12
2022-09-07T06:07:04.558Z,46.19
2022-09-07T06:09:32.720Z,46.51
2022-09-07T06:11:59.662Z,45.98
2022-09-07T06:14:28.856Z,46.04
2022-09-07T06:16:55.329Z,46.27
2022-09-07T06:19:22.503Z,45.67
2022-09-07T06:21:49.895Z,45.81
2022-09-07T06:24:16.891Z,45.97
2022-09-07T06:26:44.359Z,46.41
2022-09-07T06:29:10.778Z,45.98
2022-09-07T06:34:25.682Z,46.36
2022-09-07T06:36:52.150Z,46.30
2022-09-07T06:39:18.689Z,46.38
2022-09-07T06:42:00.918Z,46.30
2022-09-07T06:44:27.993Z,46.35
2022-09-07T06:49:28.601Z,46.21
2022-09-07T06:51:55.395Z,45.59
2022-09-07T06:57:09.986Z,46.22
2022-09-07T06:59:36.800Z,46.11
2022-09-07T07:02:03.279Z,45.93
2022-09-07T07:04:29.731Z,46.16
2022-09-07T07:06:56.731Z,46.20
2022-09-07T07:09:23.260Z,46.32
2022-09-07T07:11:49.821Z,46.07
2022-09-07T07:14:16.340Z,45.85
2022-09-07T07:16:44.028Z,45.78
2022-09-07T07:19:10.542Z,45.67
2022-09-07T07:22:03.152Z,45.01
2022-09-07T07:24:23.740Z,44.89
2022-09-07T07:26:50.831Z,44.84
2022-09-07T07:29:18.877Z,45.02
2022-09-07T07:31:45.453Z,45.17
2022-09-07T07:34:11.983Z,45.17
2022-09-07T07:36:38.460Z,44.91
2022-09-07T07:39:05.094Z,45.61
2022-09-07T07:44:19.088Z,44.56
2022-09-07T07:46:45.616Z,45.32
2022-09-07T07:49:13.193Z,44.57
2022-09-07T07:54:26.372Z,44.68
2022-09-07T07:56:52.748Z,44.70
2022-09-07T07:59:19.529Z,44.88
2022-09-07T08:01:46.592Z,45.08
2022-09-07T08:04:13.095Z,45.35
2022-09-07T08:06:39.659Z,45.30
2022-09-07T08:09:06.494Z,44.74
2022-09-07T08:11:32.984Z,45.17
2022-09-07T08:13:59.447Z,45.15
2022-09-07T08:16:26.150Z,45.05
2022-09-07T08:18:52.639Z,44.91
2022-09-07T08:21:19.173Z,44.01
2022-09-07T08:23:46.202Z,44.40
2022-09-07T08:26:12.825Z,44.29
2022-09-07T08:28:39.370Z,44.57
2022-09-07T08:31:05.917Z,43.95
2022-09-07T08:33:33.588Z,44.71
2022-09-07T08:36:00.083Z,44.50
2022-09-07T08:38:34.225Z,44.51
2022-09-07T08:41:00.694Z,44.08
2022-09-07T08:43:27.763Z,44.21
2022-09-07T08:45:54.317Z,44.91
2022-09-07T08:48:20.814Z,44.72
2022-09-07T08:50:47.748Z,44.38
2022-09-07T08:53:15.011Z,43.89
2022-09-07T08:55:41.426Z,44.37
2022-09-07T08:58:18.150Z,44.31
2022-09-07T09:01:30.601Z,44.07
2022-09-07T09:06:28.031Z,44.02
2022-09-07T09:08:55.337Z,44.21
2022-09-07T09:11:21.897Z,44.24
2022-09-07T09:13:48.336Z,44.25
2022-09-07T09:16:15.020Z,44.09
2022-09-07T09:18:41.725Z,43.44
2022-09-07T09:21:08.319Z,43.62
2022-09-07T09:23:35.530Z,43.87
2022-09-07T09:26:04.583Z,44.20
2022-09-07T09:28:32.441Z,43.66
2022-09-07T09:30:59.262Z,43.05
2022-09-07T09:33:28.378Z,43.72
2022-09-07T09:35:56.345Z,43.60
2022-09-07T09:38:22.992Z,43.37
2022-09-07T09:40:49.660Z,43.30
2022-09-07T09:43:16.033Z,44.13
2022-09-07T09:48:29.211Z,43.76
2022-09-07T09:53:42.286Z,43.59
2022-09-07T09:56:09.088Z,43.26
2022-09-07T10:01:25.266Z,43.79
2022-09-07T10:06:20.469Z,43.58
2022-09-07T10:08:47.751Z,43.43
2022-09-07T10:11:15.916Z,43.59
2022-09-07T10:13:42.842Z,43.32
2022-09-07T10:16:09.630Z,43.86
2022-09-07T10:18:36.230Z,43.42
2022-09-07T10:21:02.626Z,44.16
2022-09-07T10:23:29.035Z,43.70
2022-09-07T10:25:55.455Z,43.35
2022-09-07T10:28:21.812Z,42.96
2022-09-07T10:30:48.259Z,42.94
2022-09-07T10:33:14.689Z,42.71
2022-09-07T10:35:41.038Z,42.96
2022-09-07T10:38:07.514Z,43.10
2022-09-07T10:40:33.918Z,43.08
2022-09-07T10:45:47.427Z,42.50
2022-09-07T10:48:13.826Z,42.93
2022-09-07T10:50:40.221Z,42.90
2022-09-07T10:53:23.859Z,43.77
2022-09-07T10:55:53.162Z,42.03
2022-09-07T10:58:20.747Z,42.27
2022-09-07T11:00:47.174Z,42.61
2022-09-07T11:03:28.810Z,42.55
2022-09-07T11:05:55.496Z,41.93
2022-09-07T11:08:21.903Z,43.28
2022-09-07T11:10:48.436Z,42.79
2022-09-07T11:13:15.933Z,42.74
2022-09-07T11:15:42.406Z,42.85
2022-09-07T11:18:08.818Z,42.52
2022-09-07T11:20:35.689Z,42.70
2022-09-07T11:23:03.533Z,42.73
2022-09-07T11:25:32.863Z,41.72
2022-09-07T11:27:59.569Z,42.61
2022-09-07T11:30:26.788Z,42.20
2022-09-07T11:32:53.375Z,42.50
2022-09-07T11:35:19.794Z,41.05
2022-09-07T11:37:46.184Z,42.03
2022-09-07T11:40:12.641Z,41.65
2022-09-07T11:42:46.268Z,41.58
2022-09-07T11:45:12.686Z,41.93
2022-09-07T11:47:39.399Z,41.19
2022-09-07T11:50:05.814Z,41.37
2022-09-07T11:52:32.210Z,41.79
2022-09-07T11:54:58.776Z,41.23
2022-09-07T11:57:25.220Z,40.80
2022-09-07T11:59:51.622Z,40.81
2022-09-07T12:02:18.324Z,41.00
2022-09-07T12:04:44.867Z,41.34
2022-09-07T12:07:13.374Z,40.74
2022-09-07T12:09:39.941Z,40.04
2022-09-07T12:12:06.360Z,40.95
2022-09-07T12:14:32.795Z,40.50
2022-09-07T12:16:59.394Z,40.43
2022-09-07T12:19:28.505Z,40.49
2022-09-07T12:21:55.616Z,39.51
2022-09-07T12:24:22.099Z,39.88
2022-09-07T12:26:48.583Z,39.91
2022-09-07T12:29:15.482Z,39.99
2022-09-07T12:31:57.387Z,39.88
2022-09-07T12:34:27.037Z,39.02
2022-09-07T12:36:53.636Z,40.22
2022-09-07T12:39:20.061Z,39.08
2022-09-07T12:41:47.888Z,39.89
2022-09-07T12:44:15.667Z,40.01
2022-09-07T12:46:42.357Z,40.00
2022-09-07T12:49:08.801Z,39.69
2022-09-07T12:54:24.380Z,39.20
2022-09-07T12:57:28.984Z,36.87
2022-09-07T12:59:42.060Z,38.75
2022-09-07T13:02:09.075Z,38.64
2022-09-07T13:04:38.100Z,38.12
2022-09-07T13:07:04.572Z,38.38
2022-09-07T13:09:31.303Z,37.18
2022-09-07T13:11:57.832Z,37.99
2022-09-07T13:14:26.364Z,37.59
2022-09-07T13:19:40.336Z,37.75
2022-09-07T13:22:06.815Z,37.23
2022-09-07T13:24:48.768Z,37.55
2022-09-07T13:27:17.548Z,37.96
2022-09-07T13:29:43.981Z,36.97
2022-09-07T13:32:10.449Z,36.08
2022-09-07T13:34:36.894Z,36.71
2022-09-07T13:37:03.263Z,37.04
2022-09-07T13:39:29.709Z,36.15
2022-09-07T13:41:56.851Z,36.57
2022-09-07T13:44:26.179Z,36.18
2022-09-07T13:46:53.632Z,36.37
2022-09-07T13:49:20.095Z,35.68
2022-09-07T13:51:46.665Z,37.27
2022-09-07T13:54:15.500Z,35.52
2022-09-07T13:56:42.389Z,36.34
2022-09-07T13:59:08.942Z,36.75
2022-09-07T14:01:36.455Z,36.26
2022-09-07T14:04:03.115Z,36.33
2022-09-07T14:06:29.762Z,36.17
2022-09-07T14:08:56.329Z,37.05
2022-09-07T14:11:24.858Z,36.13
2022-09-07T14:13:52.433Z,36.39
2022-09-07T14:16:19.144Z,35.66
2022-09-07T14:18:45.783Z,36.51
2022-09-07T14:21:12.320Z,35.96
2022-09-07T14:23:38.812Z,35.25
2022-09-07T14:26:21.029Z,34.81
2022-09-07T14:28:48.664Z,33.69
2022-09-07T14:31:15.262Z,34.06
2022-09-07T14:33:46.092Z,34.46
2022-09-07T14:36:36.344Z,34.53
2022-09-07T14:39:06.977Z,34.97
2022-09-07T14:41:33.992Z,34.42
2022-09-07T14:44:00.673Z,34.66
2022-09-07T14:46:27.151Z,32.92
2022-09-07T14:48:55.326Z,34.37
2022-09-07T14:51:34.744Z,35.02
2022-09-07T14:54:01.787Z,33.94
2022-09-07T14:56:28.644Z,35.12
2022-09-07T14:58:55.025Z,35.45
2022-09-07T15:01:37.574Z,34.86
2022-09-07T15:04:04.459Z,35.06
2022-09-07T15:09:17.397Z,34.29
2022-09-07T15:11:43.732Z,32.76
2022-09-07T15:14:10.099Z,33.25
2022-09-07T15:16:36.770Z,33.89
2022-09-07T15:19:03.156Z,34.50
2022-09-07T15:21:29.495Z,33.60
2022-09-07T15:23:55.916Z,34.77
2022-09-07T15:29:12.077Z,34.64
2022-09-07T15:31:41.967Z,34.25
2022-09-07T15:34:09.227Z,33.94
2022-09-07T15:36:35.579Z,33.67
2022-09-07T15:39:03.308Z,34.90
2022-09-07T15:41:30.218Z,34.15
2022-09-07T15:43:56.822Z,34.40
2022-09-07T15:46:24.825Z,34.06
2022-09-07T15:48:51.378Z,34.65
2022-09-07T15:54:11.452Z,33.83
2022-09-07T15:56:39.426Z,34.73
2022-09-07T15:59:05.945Z,34.21
2022-09-07T16:04:20.569Z,34.97
2022-09-07T16:06:48.228Z,33.74
2022-09-07T16:09:15.095Z,34.21
2022-09-07T16:11:41.724Z,34.02
2022-09-07T16:14:08.059Z,33.89
2022-09-07T16:19:21.773Z,34.69
2022-09-07T16:21:48.213Z,34.05
2022-09-07T16:24:14.543Z,34.52
2022-09-07T16:26:40.949Z,34.58
2022-09-07T16:29:07.933Z,34.52
2022-09-07T16:31:34.718Z,34.00
2022-09-07T16:34:01.726Z,33.78
2022-09-07T16:36:28.126Z,34.56
2022-09-07T16:38:54.658Z,34.78
2022-09-07T16:41:21.363Z,34.60
2022-09-07T16:43:47.747Z,34.72
2022-09-07T16:46:14.122Z,34.63
2022-09-07T16:48:40.768Z,35.22
2022-09-07T16:51:07.122Z,35.00
2022-09-07T16:53:33.526Z,35.53
2022-09-07T16:56:00.200Z,35.21
2022-09-07T16:58:42.012Z,34.85
2022-09-07T17:01:08.808Z,34.64
2022-09-07T17:03:35.288Z,35.06
2022-09-07T17:06:01.883Z,34.54
2022-09-07T17:08:28.709Z,34.71
2022-09-07T17:10:55.602Z,35.54
2022-09-07T17:13:22.079Z,34.96
2022-09-07T17:15:49.045Z,34.66
2022-09-07T17:18:15.619Z,35.35
2022-09-07T17:20:42.688Z,35.44
2022-09-07T17:23:09.373Z,35.35
2022-09-07T17:25:35.712Z,35.80
2022-09-07T17:28:02.184Z,35.36
2022-09-07T17:30:28.642Z,35.75
2022-09-07T17:32:55.031Z,35.93
2022-09-07T17:35:21.589Z,36.48
2022-09-07T17:37:48.608Z,36.04
2022-09-07T17:40:15.036Z,35.64
2022-09-07T17:45:28.199Z,36.92
2022-09-07T17:47:54.725Z,36.77
2022-09-07T17:50:21.193Z,36.89
2022-09-07T17:52:53.022Z,37.31
2022-09-07T17:55:19.713Z,37.95
2022-09-07T17:57:46.301Z,37.52
2022-09-07T18:00:13.027Z,37.44
2022-09-07T18:02:39.547Z,37.71
2022-09-07T18:05:07.096Z,38.29
2022-09-07T18:07:36.616Z,38.15
2022-09-07T18:10:03.402Z,38.91
2022-09-07T18:12:29.836Z,38.78
2022-09-07T18:14:56.962Z,38.74
2022-09-07T18:17:23.506Z,38.96
2022-09-07T18:19:50.286Z,38.74
2022-09-07T18:22:17.194Z,38.50
2022-09-07T18:24:43.780Z,38.90
2022-09-07T18:27:10.491Z,38.74
2022-09-07T18:29:37.650Z,38.71
2022-09-07T18:32:04.643Z,39.26
2022-09-07T18:34:32.448Z,39.00
2022-09-07T18:36:59.497Z,39.22
2022-09-07T18:39:26.672Z,39.26
2022-09-07T18:41:53.603Z,39.55
2022-09-07T18:47:07.246Z,39.34
2022-09-07T18:49:34.385Z,39.25
2022-09-07T18:54:47.879Z,40.13
2022-09-07T18:57:15.479Z,40.78
2022-09-07T18:59:42.359Z,40.58
2022-09-07T19:02:09.219Z,40.54
2022-09-07T19:07:26.205Z,40.58
2022-09-07T19:09:55.741Z,40.30
2022-09-07T19:12:23.430Z,40.34
2022-09-07T19:14:50.324Z,40.03
2022-09-07T19:17:16.806Z,40.35
2022-09-07T19:19:45.341Z,39.86
2022-09-07T19:22:12.161Z,40.09
2022-09-07T19:24:39.219Z,39.72
2022-09-07T19:27:09.191Z,40.08
2022-09-07T19:29:36.381Z,40.17
2022-09-07T19:32:04.602Z,40.19
2022-09-07T19:34:34.455Z,40.42
2022-09-07T19:37:01.723Z,40.50
2022-09-07T19:39:29.373Z,40.26
2022-09-07T19:41:59.266Z,40.30
2022-09-07T19:44:26.152Z,40.72
2022-09-07T19:46:56.361Z,40.79
2022-09-07T19:49:24.686Z,40.82
2022-09-07T19:51:52.127Z,40.87
2022-09-07T19:54:19.816Z,40.62
2022-09-07T19:56:47.383Z,40.67
2022-09-07T19:59:16.653Z,40.98
2022-09-07T20:01:49.255Z,41.00
2022-09-07T20:04:20.097Z,41.19
2022-09-07T20:06:48.232Z,41.19
2022-09-07T20:09:15.372Z,41.77
2022-09-07T20:11:46.248Z,41.39
2022-09-07T20:14:14.000Z,41.94
2022-09-07T20:16:41.277Z,42.38
2022-09-07T20:19:10.445Z,42.60
2022-09-07T20:21:37.518Z,42.77
2022-09-07T20:24:05.863Z,42.52
2022-09-07T20:26:32.763Z,42.51
2022-09-07T20:31:47.364Z,42.88
2022-09-07T20:34:14.346Z,42.67
2022-09-07T20:36:41.330Z,42.79
2022-09-07T20:39:08.116Z,42.84
2022-09-07T20:41:34.678Z,42.58
2022-09-07T20:44:01.323Z,42.56
2022-09-07T20:46:27.791Z,42.43
2022-09-07T20:48:54.558Z,42.39
2022-09-07T20:51:23.476Z,42.72
2022-09-07T20:53:50.754Z,42.66
2022-09-07T20:56:17.327Z,43.04
2022-09-07T20:58:43.747Z,42.99
2022-09-07T21:01:10.597Z,43.30
2022-09-07T21:03:37.240Z,43.21
2022-09-07T21:06:03.652Z,42.88
2022-09-07T21:08:30.584Z,42.72
2022-09-07T21:10:57.173Z,42.80
2022-09-07T21:13:23.630Z,43.16
2022-09-07T21:15:50.633Z,43.66
2022-09-07T21:18:17.407Z,43.70
2022-09-07T21:20:56.940Z,43.29
2022-09-07T21:23:31.467Z,43.45
2022-09-07T21:25:57.866Z,43.07
2022-09-07T21:28:24.414Z,43.19
2022-09-07T21:30:51.249Z,43.22
2022-09-07T21:33:17.639Z,43.59
2022-09-07T21:35:44.200Z,43.79
2022-09-07T21:38:10.691Z,43.90
2022-09-07T21:40:37.402Z,43.85
2022-09-07T21:43:04.151Z,44.31
2022-09-07T21:45:30.828Z,43.87
2022-09-07T21:47:57.578Z,44.15
2022-09-07T21:50:24.104Z,43.74
2022-09-07T21:52:50.645Z,43.68
2022-09-07T21:55:17.202Z,43.94
2022-09-07T21:57:43.641Z,43.70
2022-09-07T22:00:10.490Z,43.53
2022-09-07T22:02:37.115Z,44.29
2022-09-07T22:05:03.492Z,44.23
2022-09-07T22:07:30.231Z,43.95
2022-09-07T22:09:59.206Z,43.75
2022-09-07T22:12:25.657Z,44.63
2022-09-07T22:14:52.192Z,44.41
2022-09-07T22:17:18.588Z,44.14
2022-09-07T22:19:45.187Z,45.16
2022-09-07T22:22:12.318Z,45.15
2022-09-07T22:24:38.774Z,44.82
2022-09-07T22:27:05.311Z,44.47
2022-09-07T22:29:31.787Z,44.45
2022-09-07T22:31:58.454Z,44.24
2022-09-07T22:34:25.883Z,44.22
2022-09-07T22:36:53.018Z,44.28
2022-09-07T22:39:19.462Z,44.70
2022-09-07T22:41:45.883Z,44.80
2022-09-07T22:44:12.338Z,45.35
2022-09-07T22:46:38.852Z,45.12
2022-09-07T22:49:05.423Z,44.95
2022-09-07T22:51:32.037Z,44.74
2022-09-07T22:54:00.671Z,44.41
2022-09-07T22:56:27.096Z,44.87
2022-09-07T22:58:53.707Z,44.44
2022-09-07T23:01:20.230Z,44.25
2022-09-07T23:03:46.732Z,44.08
2022-09-07T23:06:13.772Z,44.48
2022-09-07T23:08:40.660Z,44.53
2022-09-07T23:11:07.051Z,44.50
2022-09-07T23:13:34.003Z,44.29
2022-09-07T23:16:00.564Z,44.93
2022-09-07T23:18:27.607Z,44.64
2022-09-07T23:21:00.275Z,44.66
2022-09-07T23:23:27.150Z,45.50
2022-09-07T23:25:53.567Z,45.30
2022-09-07T23:28:20.063Z,45.51
2022-09-07T23:30:46.874Z,45.16
2022-09-07T23:33:13.585Z,44.88
2022-09-07T23:35:40.598Z,44.99
2022-09-07T23:38:07.052Z,45.52
2022-09-07T23:40:33.491Z,46.22
2022-09-07T23:43:01.690Z,45.55
2022-09-07T23:45:29.129Z,45.20
2022-09-07T23:47:55.681Z,45.93
2022-09-07T23:50:22.370Z,45.49
2022-09-07T23:52:48.815Z,45.54
2022-09-07T23:55:15.397Z,45.64
2022-09-07T23:57:42.112Z,45.12
